Time;durP1;ratioP1;P1;durP2;ratioP2;P2;SDS_P1;SDS_P2;PMS_P1;PMS_P2;Temp;Humidity;BMP_temperature;BMP_pressure;BME280_temperature;BME280_humidity;BME280_pressure;Samples;Min_cycle;Max_cycle;Signal;HPM_P1;HPM_P2
2024/01/31 00:01:19;;;;;;;1.77;1.73;;;;;;;6.68;82.30;96953.16;4309825;32;20377;-73
2024/01/31 00:03:45;;;;;;;1.47;1.10;;;;;;;6.81;81.92;96947.66;4302426;32;20202;-73
2024/01/31 00:06:11;;;;;;;1.40;1.40;;;;;;;6.80;82.95;96953.97;4310214;32;20301;-73
2024/01/31 00:08:42;;;;;;;1.33;1.23;;;;;;;6.88;82.58;96950.19;4316200;32;20289;-72
2024/01/31 00:11:09;;;;;;;1.27;1.20;;;;;;;6.95;81.90;96947.44;4309931;32;20331;-71
2024/01/31 00:13:35;;;;;;;1.20;1.17;;;;;;;7.02;81.77;96946.28;4297265;33;20281;-72
2024/01/31 00:16:03;;;;;;;1.30;1.30;;;;;;;7.06;81.17;96941.38;4305806;33;20286;-72
2024/01/31 00:18:30;;;;;;;1.27;1.27;;;;;;;7.12;80.91;96940.41;4294051;32;20429;-73
2024/01/31 00:20:57;;;;;;;1.60;1.50;;;;;;;7.18;80.67;96940.31;4316362;33;20313;-73
2024/01/31 00:23:24;;;;;;;2.93;1.73;;;;;;;7.18;80.47;96942.94;4299856;33;20356;-73
2024/01/31 00:25:52;;;;;;;1.93;1.47;;;;;;;7.24;79.86;96947.31;4299016;32;20307;-73
2024/01/31 00:28:19;;;;;;;2.23;2.13;;;;;;;7.26;79.18;96946.28;4306522;33;20286;-73
2024/01/31 00:30:47;;;;;;;1.50;1.40;;;;;;;7.29;78.72;96957.16;4303684;32;20317;-73
2024/01/31 00:33:14;;;;;;;1.40;1.40;;;;;;;7.09;79.30;96949.59;4315995;32;20413;-72
2024/01/31 00:35:42;;;;;;;1.83;1.73;;;;;;;7.27;79.21;96943.41;4322652;32;20370;-74
2024/01/31 00:38:08;;;;;;;1.37;1.30;;;;;;;7.24;79.48;96949.16;4311330;32;20309;-72
2024/01/31 00:40:34;;;;;;;1.23;1.23;;;;;;;7.23;78.68;96948.34;4304231;33;20354;-73
2024/01/31 00:43:00;;;;;;;1.00;1.00;;;;;;;7.01;79.60;96944.69;4324136;32;20270;-73
2024/01/31 00:45:28;;;;;;;1.30;1.30;;;;;;;7.00;80.50;96948.34;4328554;32;20261;-74
2024/01/31 00:47:53;;;;;;;1.27;1.27;;;;;;;7.01;80.13;96952.59;4314722;32;20364;-75
2024/01/31 00:50:23;;;;;;;1.20;1.20;;;;;;;7.05;79.95;96952.94;4301794;32;20350;-75
2024/01/31 00:52:51;;;;;;;2.10;1.70;;;;;;;6.95;80.30;96961.44;4257616;33;20246;-73
2024/01/31 00:55:17;;;;;;;2.60;1.77;;;;;;;7.11;79.96;96959.94;4279606;33;20332;-73
2024/01/31 00:57:44;;;;;;;2.93;1.53;;;;;;;7.04;80.52;96956.62;4318716;32;20349;-72
2024/01/31 01:00:11;;;;;;;2.83;1.50;;;;;;;6.93;81.04;96955.56;4318218;32;20190;-72
2024/01/31 01:02:41;;;;;;;1.70;1.60;;;;;;;6.95;81.43;96960.63;4292298;32;20283;-72
2024/01/31 01:05:08;;;;;;;1.63;1.53;;;;;;;7.01;81.27;96951.81;4262350;32;20291;-72
2024/01/31 01:07:38;;;;;;;2.77;2.07;;;;;;;7.08;80.32;96947.19;4299415;32;20361;-72
2024/01/31 01:10:06;;;;;;;2.27;2.07;;;;;;;6.95;81.86;96952.72;4253352;33;20363;-73
2024/01/31 01:12:32;;;;;;;2.37;2.27;;;;;;;7.03;81.51;96949.75;4295668;33;20300;-73
2024/01/31 01:14:58;;;;;;;3.43;1.80;;;;;;;6.82;82.25;96951.91;4294655;33;20389;-73
2024/01/31 01:17:23;;;;;;;1.40;1.37;;;;;;;6.85;81.57;96951.47;4294295;33;20343;-73
2024/01/31 01:19:49;;;;;;;2.00;1.90;;;;;;;6.89;82.48;96949.16;4296816;33;20209;-73
2024/01/31 01:22:18;;;;;;;1.20;1.20;;;;;;;6.96;81.98;96955.13;4301487;32;20189;-75
2024/01/31 01:24:43;;;;;;;2.17;1.97;;;;;;;7.05;81.40;96956.41;4299072;33;20242;-74
2024/01/31 01:27:12;;;;;;;2.70;2.07;;;;;;;7.12;81.05;96956.25;4314682;32;20334;-73
2024/01/31 01:29:40;;;;;;;1.93;1.73;;;;;;;7.11;80.12;96957.28;4299175;32;20194;-74
2024/01/31 01:32:08;;;;;;;1.50;1.50;;;;;;;7.15;80.24;96961.88;4293587;33;20294;-73
2024/01/31 01:34:34;;;;;;;1.97;1.87;;;;;;;7.01;80.70;96954.44;4299038;32;20305;-73
2024/01/31 01:37:02;;;;;;;1.77;1.67;;;;;;;7.01;80.88;96960.53;4299846;33;20282;-73
2024/01/31 01:39:28;;;;;;;2.57;1.60;;;;;;;7.03;80.92;96966.38;4307769;32;20297;-73
2024/01/31 01:41:56;;;;;;;1.70;1.60;;;;;;;7.04;80.81;96954.78;4297078;33;20286;-73
2024/01/31 01:44:22;;;;;;;2.87;1.77;;;;;;;7.03;81.32;96957.66;4308381;32;20286;-73
2024/01/31 01:46:50;;;;;;;1.50;1.40;;;;;;;6.94;81.17;96959.00;4308105;33;20362;-74
2024/01/31 01:49:19;;;;;;;2.77;1.87;;;;;;;7.03;80.88;96947.09;4307129;32;20287;-73
2024/01/31 01:51:45;;;;;;;2.17;2.07;;;;;;;6.76;81.87;96958.09;4312372;32;20295;-73
2024/01/31 01:54:13;;;;;;;1.57;1.47;;;;;;;6.85;81.14;96959.37;4300992;32;20278;-73
2024/01/31 01:56:44;;;;;;;1.97;1.87;;;;;;;6.99;80.94;96956.50;4297327;33;20287;-72
2024/01/31 01:59:12;;;;;;;2.27;2.07;;;;;;;6.81;81.18;96958.22;4307179;32;20323;-72
2024/01/31 02:01:47;;;;;;;1.53;1.37;;;;;;;6.73;81.46;96958.53;4302602;32;20319;-72
2024/01/31 02:04:14;;;;;;;1.60;1.50;;;;;;;6.65;82.27;96955.47;4304456;32;20286;-72
2024/01/31 02:06:40;;;;;;;1.67;1.57;;;;;;;6.74;82.23;96944.34;4307902;33;20278;-73
2024/01/31 02:09:06;;;;;;;1.00;1.00;;;;;;;6.50;82.69;96942.69;4316588;32;20416;-73
2024/01/31 02:11:37;;;;;;;0.83;0.83;;;;;;;6.39;83.36;96935.59;4295944;32;20306;-72
2024/01/31 02:14:03;;;;;;;1.13;1.10;;;;;;;6.49;83.34;96935.81;4267509;32;20273;-72
2024/01/31 02:16:30;;;;;;;1.90;1.80;;;;;;;6.63;82.74;96931.16;4328133;32;20377;-72
2024/01/31 02:18:55;;;;;;;0.90;0.90;;;;;;;6.57;82.45;96939.97;4319745;32;20307;-72
2024/01/31 02:21:30;;;;;;;1.67;1.57;;;;;;;6.62;82.51;96938.25;4309220;32;20370;-74
2024/01/31 02:23:55;;;;;;;1.23;1.23;;;;;;;6.62;82.43;96943.53;4312898;32;20212;-74
2024/01/31 02:26:23;;;;;;;1.50;1.40;;;;;;;6.61;82.53;96944.56;4268858;32;20303;-75
2024/01/31 02:28:52;;;;;;;1.77;1.47;;;;;;;6.43;83.35;96949.91;4305092;32;20289;-74
2024/01/31 02:31:19;;;;;;;1.80;1.70;;;;;;;6.25;83.65;96949.97;4309673;32;20309;-74
2024/01/31 02:33:46;;;;;;;2.93;1.20;;;;;;;6.12;84.40;96946.50;4281698;32;20362;-73
2024/01/31 02:36:11;;;;;;;2.37;1.57;;;;;;;6.13;85.49;96942.84;4295261;32;20290;-74
2024/01/31 02:38:39;;;;;;;1.13;1.13;;;;;;;6.08;84.23;96942.72;4310072;32;20309;-74
2024/01/31 02:41:09;;;;;;;1.10;1.10;;;;;;;6.14;84.25;96939.19;4301425;32;20219;-75
2024/01/31 02:43:35;;;;;;;1.60;1.50;;;;;;;6.20;83.89;96938.28;4310431;32;20306;-75
2024/01/31 02:46:04;;;;;;;1.40;1.40;;;;;;;6.15;83.78;96945.25;4268973;33;20297;-75
2024/01/31 02:48:29;;;;;;;1.00;1.00;;;;;;;6.17;84.06;96949.28;4322033;32;20354;-75
2024/01/31 02:50:56;;;;;;;0.90;0.90;;;;;;;6.30;83.60;96947.47;4304575;33;20304;-75
2024/01/31 02:53:23;;;;;;;1.10;1.10;;;;;;;6.35;83.05;96937.06;4313825;32;20295;-75
2024/01/31 02:55:48;;;;;;;1.33;1.30;;;;;;;6.32;83.39;96943.59;4291037;33;20332;-75
2024/01/31 02:58:16;;;;;;;1.20;1.20;;;;;;;6.15;83.64;96943.44;4294873;32;20312;-75
2024/01/31 03:00:44;;;;;;;1.53;1.43;;;;;;;6.32;83.61;96937.50;4300826;32;20241;-74
2024/01/31 03:03:10;;;;;;;1.57;1.47;;;;;;;6.28;83.71;96931.06;4310007;32;20358;-74
2024/01/31 03:05:40;;;;;;;1.17;1.07;;;;;;;6.23;84.97;96937.03;4317898;32;20350;-76
2024/01/31 03:08:10;;;;;;;2.43;1.90;;;;;;;6.37;84.22;96933.16;4300866;32;20358;-75
2024/01/31 03:10:35;;;;;;;0.87;0.87;;;;;;;6.29;85.32;96940.59;4300426;32;20298;-75
2024/01/31 03:13:07;;;;;;;3.23;1.27;;;;;;;6.41;82.91;96939.59;4292258;33;20336;-75
2024/01/31 03:15:33;;;;;;;0.90;0.90;;;;;;;6.42;83.34;96935.94;4314187;32;20187;-74
2024/01/31 03:18:04;;;;;;;1.10;1.10;;;;;;;6.55;82.56;96930.44;4314117;32;20290;-74
2024/01/31 03:20:37;;;;;;;1.07;1.07;;;;;;;6.18;83.79;96940.34;4324279;32;20344;-74
2024/01/31 03:23:04;;;;;;;1.27;1.27;;;;;;;6.34;83.74;96949.44;4275138;32;20325;-74
2024/01/31 03:25:30;;;;;;;3.87;1.87;;;;;;;6.33;84.04;96945.19;4310531;32;20374;-75
2024/01/31 03:27:57;;;;;;;2.33;1.63;;;;;;;6.12;84.45;96951.78;4300532;32;20281;-74
2024/01/31 03:30:23;;;;;;;1.23;0.67;;;;;;;6.29;84.25;96962.47;4322198;32;20295;-74
2024/01/31 03:32:50;;;;;;;1.17;1.17;;;;;;;6.14;84.47;96949.72;4330209;32;20339;-75
2024/01/31 03:35:19;;;;;;;1.37;1.37;;;;;;;6.35;84.14;96948.41;4297610;32;20190;-75
2024/01/31 03:37:46;;;;;;;4.00;1.63;;;;;;;6.39;84.06;96946.94;4312174;32;20385;-75
2024/01/31 03:40:14;;;;;;;1.30;1.30;;;;;;;6.31;84.26;96954.34;4298282;32;20349;-74
2024/01/31 03:42:44;;;;;;;1.33;1.33;;;;;;;6.07;85.44;96959.53;4304287;32;20318;-74
2024/01/31 03:45:12;;;;;;;1.27;1.27;;;;;;;6.06;85.76;96957.94;4316346;32;20286;-74
2024/01/31 03:47:37;;;;;;;1.17;1.07;;;;;;;6.27;85.04;96959.25;4319130;32;20278;-74
2024/01/31 03:50:04;;;;;;;1.13;1.13;;;;;;;6.19;85.55;96956.97;4312606;32;20278;-74
2024/01/31 03:52:31;;;;;;;1.03;1.03;;;;;;;6.32;84.42;96966.50;4295192;32;20365;-74
2024/01/31 03:54:59;;;;;;;2.17;2.00;;;;;;;6.40;84.66;96960.91;4320059;32;20269;-75
2024/01/31 03:57:26;;;;;;;2.47;2.27;;;;;;;6.35;83.93;96966.84;4309257;33;20306;-74
2024/01/31 03:59:51;;;;;;;5.23;1.93;;;;;;;6.23;84.79;96965.22;4324914;32;20321;-74
2024/01/31 04:02:18;;;;;;;1.70;1.63;;;;;;;6.18;85.19;96977.22;4317843;32;20301;-75
2024/01/31 04:04:46;;;;;;;3.97;2.73;;;;;;;6.15;85.13;96980.31;4314351;32;20201;-74
2024/01/31 04:07:18;;;;;;;16.47;1.73;;;;;;;6.28;84.92;96976.69;4309094;32;20288;-74
2024/01/31 04:09:44;;;;;;;3.43;3.13;;;;;;;6.20;85.00;96972.53;4278049;33;20413;-74
2024/01/31 04:12:10;;;;;;;8.00;3.13;;;;;;;6.18;85.20;96985.13;4297748;32;20283;-74
2024/01/31 04:14:36;;;;;;;2.60;2.40;;;;;;;6.30;85.31;96987.78;4327776;32;20312;-75
2024/01/31 04:17:04;;;;;;;3.27;2.93;;;;;;;6.42;84.46;96985.22;4320025;33;20240;-75
2024/01/31 04:19:30;;;;;;;2.90;2.57;;;;;;;6.34;84.65;96986.31;4316192;32;20309;-75
2024/01/31 04:21:56;;;;;;;5.77;2.50;;;;;;;6.37;84.95;96985.06;4300527;32;20339;-75
2024/01/31 04:24:21;;;;;;;3.13;2.00;;;;;;;6.46;84.33;96983.72;4310025;32;20336;-75
2024/01/31 04:26:49;;;;;;;2.50;2.00;;;;;;;6.46;84.43;96976.59;4296984;33;20223;-75
2024/01/31 04:29:16;;;;;;;1.63;1.53;;;;;;;6.13;85.57;96978.91;4308531;32;20283;-74
2024/01/31 04:31:43;;;;;;;2.07;1.97;;;;;;;6.19;85.84;96985.94;4309901;32;20321;-74
2024/01/31 04:34:09;;;;;;;1.43;1.33;;;;;;;6.32;85.05;96975.19;4322240;32;20370;-71
2024/01/31 04:36:36;;;;;;;0.80;0.80;;;;;;;6.34;85.14;96974.97;4314202;32;20377;-74
2024/01/31 04:39:01;;;;;;;2.43;1.90;;;;;;;6.25;84.60;96992.13;4324085;32;20376;-74
2024/01/31 04:41:27;;;;;;;1.77;1.37;;;;;;;6.17;85.52;96993.25;4318068;32;20366;-74
2024/01/31 04:43:54;;;;;;;1.60;1.47;;;;;;;6.33;85.41;96981.28;4305200;32;20194;-74
2024/01/31 04:46:21;;;;;;;1.57;1.47;;;;;;;6.35;85.31;96984.50;4267300;32;20386;-74
2024/01/31 04:48:49;;;;;;;1.43;1.33;;;;;;;6.29;84.73;96978.28;4293715;32;20301;-74
2024/01/31 04:51:16;;;;;;;1.30;1.30;;;;;;;6.32;85.20;96984.94;4279731;32;20315;-74
2024/01/31 04:53:42;;;;;;;1.67;1.57;;;;;;;6.49;84.84;96988.53;4313033;32;20299;-74
2024/01/31 04:56:08;;;;;;;0.97;0.97;;;;;;;6.29;85.26;96983.56;4317129;32;20301;-73
2024/01/31 04:58:39;;;;;;;1.27;1.27;;;;;;;6.43;84.36;96992.91;4315343;32;20291;-74
2024/01/31 05:01:06;;;;;;;0.57;0.57;;;;;;;6.26;85.95;96988.47;4283203;32;20325;-74
2024/01/31 05:03:33;;;;;;;10.20;1.40;;;;;;;6.37;85.46;96980.63;4296911;33;20329;-74
2024/01/31 05:05:59;;;;;;;4.80;1.20;;;;;;;6.51;84.72;96986.47;4315168;32;20278;-74
2024/01/31 05:08:30;;;;;;;2.73;1.00;;;;;;;6.46;84.94;96995.06;4301149;32;20307;-74
2024/01/31 05:10:56;;;;;;;1.37;1.37;;;;;;;6.34;85.58;96996.06;4295084;33;20316;-75
2024/01/31 05:13:23;;;;;;;1.40;1.40;;;;;;;6.44;85.35;96997.13;4293221;32;20284;-74
2024/01/31 05:15:51;;;;;;;1.40;1.30;;;;;;;6.54;84.77;97001.84;4306274;32;20344;-74
2024/01/31 05:18:18;;;;;;;3.07;1.00;;;;;;;6.62;83.70;96992.81;4290902;33;20306;-74
2024/01/31 05:20:47;;;;;;;6.03;1.77;;;;;;;6.50;85.11;97003.31;4296810;32;20291;-74
2024/01/31 05:23:13;;;;;;;0.70;0.70;;;;;;;6.58;84.79;96997.75;4292285;32;20347;-74
2024/01/31 05:25:42;;;;;;;3.60;1.80;;;;;;;6.40;85.46;97001.25;4296888;32;20305;-66
2024/01/31 05:28:09;;;;;;;1.50;1.40;;;;;;;6.54;84.74;97002.66;4280869;32;20288;-72
2024/01/31 05:30:36;;;;;;;1.80;1.70;;;;;;;6.53;85.49;96994.97;4289348;32;20345;-74
2024/01/31 05:33:06;;;;;;;1.40;1.40;;;;;;;6.32;86.04;96991.00;4305705;33;20287;-74
2024/01/31 05:35:35;;;;;;;1.57;1.57;;;;;;;6.49;85.59;96988.53;4280003;32;20311;-75
2024/01/31 05:38:03;;;;;;;0.80;0.80;;;;;;;6.48;85.82;96992.19;4296032;33;20390;-75
2024/01/31 05:40:49;;;;;;;3.80;1.80;;;;;;;6.43;86.32;96986.81;4295183;33;20341;-75
2024/01/31 05:43:18;;;;;;;1.40;1.27;;;;;;;6.41;86.36;96992.31;4306098;32;20313;-75
2024/01/31 05:45:44;;;;;;;2.40;2.20;;;;;;;6.44;86.45;96991.06;4288222;32;20299;-74
2024/01/31 05:48:10;;;;;;;1.37;1.27;;;;;;;6.60;85.58;96984.34;4275229;32;20339;-75
2024/01/31 05:50:38;;;;;;;1.40;1.30;;;;;;;6.59;85.66;96982.72;4294095;33;20317;-75
2024/01/31 05:53:04;;;;;;;1.93;1.77;;;;;;;6.35;86.36;96982.66;4287699;33;20257;-74
2024/01/31 05:55:30;;;;;;;1.63;1.53;;;;;;;6.35;86.70;96982.66;4295665;33;20332;-75
2024/01/31 05:57:58;;;;;;;1.50;1.47;;;;;;;6.65;85.07;96977.31;4292889;33;20213;-74
2024/01/31 06:00:25;;;;;;;1.50;1.40;;;;;;;6.55;85.76;96987.62;4306885;32;20352;-74
2024/01/31 06:02:51;;;;;;;1.90;1.80;;;;;;;6.47;85.82;96994.03;4306929;33;20287;-74
2024/01/31 06:05:18;;;;;;;1.87;1.77;;;;;;;6.36;86.44;96988.75;4296457;33;20325;-70
2024/01/31 06:07:44;;;;;;;1.53;1.43;;;;;;;6.37;86.30;96985.06;4294365;33;20308;-73
2024/01/31 06:10:11;;;;;;;1.60;1.50;;;;;;;6.56;85.79;96999.78;4285996;32;20362;-73
2024/01/31 06:12:40;;;;;;;1.60;1.50;;;;;;;6.68;85.60;97007.72;4282998;32;20334;-74
2024/01/31 06:15:06;;;;;;;1.30;1.20;;;;;;;6.78;85.46;97008.78;4299774;32;20291;-74
2024/01/31 06:17:31;;;;;;;1.53;1.43;;;;;;;6.66;86.24;97005.31;4306112;32;20445;-73
2024/01/31 06:19:56;;;;;;;1.93;1.13;;;;;;;6.67;86.28;97001.62;4279693;32;20213;-73
2024/01/31 06:22:23;;;;;;;1.90;1.80;;;;;;;6.37;87.00;97004.34;4299156;32;20194;-74
2024/01/31 06:24:49;;;;;;;1.83;1.73;;;;;;;6.69;85.71;97010.12;4315597;32;20201;-74
2024/01/31 06:27:16;;;;;;;4.17;1.10;;;;;;;6.71;85.20;97009.91;4304905;32;20394;-74
2024/01/31 06:29:43;;;;;;;1.47;1.30;;;;;;;6.84;85.14;97015.78;4299688;32;20377;-73
2024/01/31 06:32:10;;;;;;;1.50;1.43;;;;;;;6.68;85.60;97013.00;4291737;32;20317;-73
2024/01/31 06:34:38;;;;;;;1.73;1.63;;;;;;;6.65;86.17;97022.16;4295491;32;20284;-74
2024/01/31 06:37:04;;;;;;;2.33;2.23;;;;;;;6.70;85.95;97022.28;4280993;32;20291;-74
2024/01/31 06:39:29;;;;;;;1.40;1.30;;;;;;;6.59;86.19;97030.97;4284660;32;20301;-74
2024/01/31 06:41:54;;;;;;;1.47;1.47;;;;;;;6.60;86.69;97021.25;4290640;33;20205;-74
2024/01/31 06:44:21;;;;;;;1.27;1.27;;;;;;;6.71;86.51;97023.91;4301272;32;20224;-74
2024/01/31 06:46:50;;;;;;;5.20;1.90;;;;;;;6.58;86.72;97024.09;4298964;32;20261;-73
2024/01/31 06:49:15;;;;;;;1.93;1.83;;;;;;;6.68;85.60;97024.34;4303181;32;20298;-73
2024/01/31 06:51:43;;;;;;;3.90;1.57;;;;;;;6.66;86.70;97021.13;4317499;32;20389;-72
2024/01/31 06:54:09;;;;;;;1.93;1.80;;;;;;;6.59;87.00;97033.63;4288321;32;20221;-73
2024/01/31 06:56:37;;;;;;;1.20;1.20;;;;;;;6.73;85.79;97027.13;4283675;32;20377;-74
2024/01/31 06:59:02;;;;;;;1.43;1.40;;;;;;;6.80;85.48;97025.19;4298716;32;20210;-74
2024/01/31 07:01:29;;;;;;;3.43;1.60;;;;;;;6.72;85.46;97025.50;4303767;32;20300;-73
2024/01/31 07:03:55;;;;;;;1.80;1.70;;;;;;;7.00;83.92;97037.25;4284153;32;20248;-74
2024/01/31 07:06:22;;;;;;;1.10;1.10;;;;;;;7.05;83.55;97040.81;4317292;32;20286;-74
2024/01/31 07:08:47;;;;;;;4.83;2.20;;;;;;;6.96;84.23;97046.66;4288362;32;20318;-74
2024/01/31 07:11:13;;;;;;;1.80;1.43;;;;;;;6.83;84.52;97059.03;4306390;33;20291;-73
2024/01/31 07:13:40;;;;;;;1.63;1.53;;;;;;;6.86;83.92;97053.28;4295470;32;20248;-73
2024/01/31 07:16:10;;;;;;;1.20;1.20;;;;;;;6.83;84.21;97056.38;4292116;33;20377;-74
2024/01/31 07:18:39;;;;;;;1.60;1.60;;;;;;;6.74;84.76;97049.00;4300468;32;20317;-74
2024/01/31 07:21:08;;;;;;;2.00;1.70;;;;;;;6.77;84.74;97052.00;4313035;33;20291;-74
2024/01/31 07:23:36;;;;;;;1.63;1.53;;;;;;;6.53;85.22;97050.34;4315798;32;20413;-74
2024/01/31 07:26:04;;;;;;;1.80;1.60;;;;;;;6.51;85.33;97047.09;4311316;33;20326;-74
2024/01/31 07:28:36;;;;;;;1.70;1.37;;;;;;;6.58;85.33;97039.91;4333980;32;20285;-74
2024/01/31 07:31:06;;;;;;;1.10;1.10;;;;;;;6.68;84.81;97039.34;4331955;32;20297;-74
2024/01/31 07:33:34;;;;;;;7.70;1.67;;;;;;;6.65;84.65;97035.34;4328649;32;20316;-74
2024/01/31 07:35:59;;;;;;;1.30;1.23;;;;;;;6.64;84.61;97046.13;4312904;32;20423;-74
2024/01/31 07:38:26;;;;;;;0.53;0.53;;;;;;;6.65;84.81;97035.34;4280620;32;20287;-74
2024/01/31 07:40:53;;;;;;;2.17;2.07;;;;;;;6.48;85.32;97029.91;4315099;32;20182;-74
2024/01/31 07:43:18;;;;;;;2.53;1.93;;;;;;;6.57;85.01;97032.25;4324112;32;20380;-74
2024/01/31 07:45:44;;;;;;;0.80;0.77;;;;;;;6.66;85.25;97031.66;4301198;32;20299;-58
2024/01/31 07:48:13;;;;;;;0.63;0.63;;;;;;;9.90;100.00;97025.62;4327837;32;20224;-59
2024/01/31 07:50:39;;;;;;;0.90;0.90;;;;;;;10.63;100.00;97017.16;4306636;32;20212;-59
2024/01/31 07:53:05;;;;;;;2.23;1.03;;;;;;;11.57;95.26;97019.22;4287623;33;20286;-58
2024/01/31 07:55:31;;;;;;;1.20;1.10;;;;;;;12.03;88.48;97016.81;4283018;32;20198;-59
2024/01/31 07:57:59;;;;;;;0.90;0.90;;;;;;;12.39;82.78;97012.41;4315166;32;20288;-59
2024/01/31 08:00:27;;;;;;;15.60;1.33;;;;;;;12.62;78.63;97009.25;4301535;32;20259;-59
2024/01/31 08:02:53;;;;;;;1.00;1.00;;;;;;;12.73;75.70;97015.38;4281703;32;20205;-74
2024/01/31 08:05:19;;;;;;;5.40;1.30;;;;;;;12.50;54.02;97021.19;4301396;33;20202;-70
2024/01/31 08:07:46;;;;;;;1.20;1.20;;;;;;;11.40;53.01;97017.78;4323322;32;20202;-71
2024/01/31 08:10:16;;;;;;;1.00;1.00;;;;;;;10.17;55.96;97025.69;4342035;32;20185;-69
2024/01/31 08:12:45;;;;;;;2.50;1.57;;;;;;;9.57;58.11;97031.78;4314475;32;20202;-70
2024/01/31 08:15:14;;;;;;;1.07;1.07;;;;;;;9.22;59.66;97019.66;4301606;32;20233;-70
2024/01/31 08:17:39;;;;;;;1.60;1.53;;;;;;;8.62;62.08;97027.41;4293808;32;20202;-68
2024/01/31 08:20:07;;;;;;;1.40;1.00;;;;;;;8.50;62.68;97031.97;4317811;32;20265;-68
2024/01/31 08:22:34;;;;;;;1.40;1.30;;;;;;;8.62;62.56;97019.47;4285119;33;20241;-69
2024/01/31 08:25:01;;;;;;;1.03;1.03;;;;;;;8.75;62.16;97021.81;4288096;32;20332;-69
2024/01/31 08:27:26;;;;;;;1.90;1.80;;;;;;;8.92;61.83;97019.19;4274589;33;20264;-68
2024/01/31 08:29:53;;;;;;;4.03;1.60;;;;;;;9.05;61.64;97013.56;4321337;32;20209;-70
2024/01/31 08:32:18;;;;;;;1.87;1.27;;;;;;;9.00;61.53;97015.34;4311366;33;20201;-70
2024/01/31 08:34:45;;;;;;;1.03;1.03;;;;;;;9.04;61.77;97019.09;4306156;32;20241;-70
2024/01/31 08:37:11;;;;;;;0.90;0.90;;;;;;;8.99;61.99;97024.31;4310470;32;20244;-69
2024/01/31 08:39:40;;;;;;;0.77;0.77;;;;;;;8.95;62.22;97024.78;4303610;32;20201;-68
2024/01/31 08:42:06;;;;;;;1.60;1.50;;;;;;;8.85;63.21;97019.34;4316334;32;20202;-69
2024/01/31 08:44:31;;;;;;;1.13;1.03;;;;;;;8.79;63.41;97017.66;4270701;33;20220;-69
2024/01/31 08:46:58;;;;;;;1.33;1.27;;;;;;;8.93;62.79;97018.97;4312289;32;20288;-69
2024/01/31 08:49:23;;;;;;;0.73;0.73;;;;;;;9.07;62.00;97014.13;4323901;32;20197;-68
2024/01/31 08:51:51;;;;;;;0.70;0.70;;;;;;;8.93;62.46;97013.66;4298093;32;20220;-67
2024/01/31 08:54:17;;;;;;;0.90;0.90;;;;;;;8.90;62.49;97016.78;4322689;32;20186;-67
2024/01/31 08:56:43;;;;;;;0.63;0.63;;;;;;;8.70;63.41;97015.66;4290714;32;20190;-66
2024/01/31 08:59:30;;;;;;;7.10;1.77;;;;;;;8.73;64.20;97009.88;4282222;33;20264;-66
2024/01/31 09:01:56;;;;;;;4.60;1.00;;;;;;;8.73;64.32;97017.81;4324212;32;20266;-67
2024/01/31 09:04:22;;;;;;;0.97;0.97;;;;;;;8.72;64.48;97009.09;4295878;32;20194;-66
2024/01/31 09:06:50;;;;;;;1.10;1.10;;;;;;;8.68;64.04;97010.59;4314337;32;20271;-66
2024/01/31 09:09:16;;;;;;;1.17;1.17;;;;;;;8.79;63.03;97001.78;4317997;32;20263;-66
2024/01/31 09:11:43;;;;;;;2.20;2.07;;;;;;;8.88;62.69;97003.00;4306915;32;20228;-66
2024/01/31 09:14:08;;;;;;;3.03;2.00;;;;;;;8.93;63.59;96995.12;4336276;32;20189;-66
2024/01/31 09:16:35;;;;;;;1.50;1.50;;;;;;;9.02;62.45;96992.06;4338411;32;20216;-66
2024/01/31 09:19:03;;;;;;;1.20;1.20;;;;;;;9.18;61.62;96999.19;4305916;32;20268;-67
2024/01/31 09:21:29;;;;;;;1.57;1.47;;;;;;;9.18;61.10;96999.19;4289376;32;20339;-67
2024/01/31 09:23:55;;;;;;;1.53;1.53;;;;;;;9.29;60.62;96990.37;4322156;32;20303;-67
2024/01/31 09:26:21;;;;;;;2.10;2.00;;;;;;;9.49;60.03;96993.28;4292253;32;20209;-68
2024/01/31 09:28:47;;;;;;;2.13;1.40;;;;;;;9.44;59.87;96985.28;4324126;32;20193;-68
2024/01/31 09:31:21;;;;;;;1.60;1.50;;;;;;;9.68;59.88;96985.84;4322159;32;20214;-70
2024/01/31 09:33:49;;;;;;;3.13;1.13;;;;;;;9.66;60.42;96990.59;4309736;33;20201;-68
2024/01/31 09:36:16;;;;;;;3.67;2.03;;;;;;;9.69;60.70;96991.97;4326311;32;20438;-68
2024/01/31 09:38:47;;;;;;;1.30;1.20;;;;;;;9.74;60.29;96992.84;4325815;32;20224;-68
2024/01/31 09:41:16;;;;;;;1.30;1.30;;;;;;;9.66;61.19;96993.25;4310391;32;20197;-68
2024/01/31 09:43:59;;;;;;;2.37;2.17;;;;;;;9.71;61.49;96988.03;4336206;32;20189;-68
2024/01/31 09:46:26;;;;;;;0.80;0.80;;;;;;;9.80;60.53;96988.38;4315225;32;20273;-68
2024/01/31 09:48:53;;;;;;;2.33;1.43;;;;;;;9.61;60.79;96982.56;4316509;32;20193;-67
2024/01/31 09:51:22;;;;;;;2.50;1.87;;;;;;;9.61;61.49;96986.03;4324196;32;20197;-68
2024/01/31 09:53:54;;;;;;;0.97;0.97;;;;;;;9.70;61.42;96977.66;4311097;32;20257;-68
2024/01/31 09:56:27;;;;;;;2.20;1.57;;;;;;;9.64;61.45;96974.94;4317922;32;20189;-68
2024/01/31 09:58:55;;;;;;;1.00;1.00;;;;;;;9.77;61.56;96967.69;4314685;32;20214;-68
2024/01/31 10:01:28;;;;;;;2.07;1.97;;;;;;;9.94;60.81;96969.22;4329337;32;20190;-70
2024/01/31 10:04:01;;;;;;;0.90;0.90;;;;;;;10.08;60.14;96966.97;4268443;33;20214;-70
2024/01/31 10:06:29;;;;;;;1.17;1.17;;;;;;;10.18;59.94;96967.09;4329178;32;20189;-70
2024/01/31 10:09:03;;;;;;;2.43;1.50;;;;;;;10.12;60.18;96970.72;4303400;32;20229;-70
2024/01/31 10:11:31;;;;;;;1.27;1.17;;;;;;;10.11;60.14;96973.63;4277562;32;20189;-70
2024/01/31 10:13:59;;;;;;;2.37;1.07;;;;;;;10.22;59.04;96980.66;4299081;32;22498;-70
2024/01/31 10:16:25;;;;;;;1.90;1.40;;;;;;;10.27;58.83;96976.22;4297502;32;20201;-70
2024/01/31 10:18:52;;;;;;;1.20;1.10;;;;;;;10.10;60.11;96964.88;4295665;32;20190;-68
2024/01/31 10:21:20;;;;;;;1.23;1.13;;;;;;;10.31;58.84;96966.72;4335640;32;20194;-68
2024/01/31 10:24:03;;;;;;;1.50;1.50;;;;;;;10.46;59.07;96965.25;4314842;32;20272;-68
2024/01/31 10:26:29;;;;;;;1.57;1.40;;;;;;;10.16;59.75;96963.09;4322914;32;20299;-70
2024/01/31 10:28:57;;;;;;;1.03;0.97;;;;;;;10.41;59.38;96957.25;4326758;32;20204;-70
2024/01/31 10:31:29;;;;;;;1.47;1.37;;;;;;;10.33;59.06;96953.22;4314853;32;20205;-69
2024/01/31 10:33:58;;;;;;;1.67;1.60;;;;;;;10.41;58.29;96952.72;4310606;33;20259;-70
2024/01/31 10:36:27;;;;;;;0.60;0.60;;;;;;;10.52;58.82;96943.81;4297921;32;20208;-70
2024/01/31 10:38:54;;;;;;;1.70;1.70;;;;;;;10.45;58.48;96948.53;4317152;32;20193;-70
2024/01/31 10:41:28;;;;;;;1.47;1.30;;;;;;;10.19;58.39;96944.81;4306204;32;20244;-70
2024/01/31 10:44:00;;;;;;;0.70;0.70;;;;;;;10.42;58.07;96945.56;4308158;32;20198;-70
2024/01/31 10:46:28;;;;;;;1.27;1.23;;;;;;;10.47;57.43;96946.44;4316506;32;20228;-70
2024/01/31 10:48:55;;;;;;;1.37;1.27;;;;;;;10.37;57.63;96934.94;4276707;33;20260;-70
2024/01/31 10:51:23;;;;;;;0.90;0.90;;;;;;;10.37;58.35;96935.75;4312316;32;20190;-70
2024/01/31 10:53:55;;;;;;;2.70;1.57;;;;;;;10.49;58.03;96927.59;4319916;33;20200;-70
2024/01/31 10:56:24;;;;;;;0.83;0.83;;;;;;;10.57;56.74;96935.91;4305026;32;20182;-70
2024/01/31 10:58:50;;;;;;;0.97;0.97;;;;;;;10.40;58.30;96929.91;4310501;32;20216;-70
2024/01/31 11:01:17;;;;;;;2.27;1.90;;;;;;;10.29;58.14;96928.22;4318972;32;20187;-70
2024/01/31 11:03:46;;;;;;;7.30;1.23;;;;;;;10.38;57.78;96924.09;4315015;32;20220;-68
2024/01/31 11:06:15;;;;;;;1.30;1.30;;;;;;;10.59;57.24;96925.06;4308491;32;20193;-68
2024/01/31 11:08:41;;;;;;;2.83;1.70;;;;;;;10.32;57.82;96933.84;4315782;32;20217;-69
2024/01/31 11:11:18;;;;;;;0.77;0.77;;;;;;;10.50;57.34;96930.00;4292640;33;20201;-70
2024/01/31 11:13:43;;;;;;;0.83;0.83;;;;;;;10.55;57.72;96931.91;4282593;33;20190;-70
2024/01/31 11:16:11;;;;;;;1.17;1.03;;;;;;;10.54;58.03;96927.66;4300941;32;20220;-69
2024/01/31 11:18:39;;;;;;;0.80;0.80;;;;;;;10.60;57.53;96921.31;4314589;32;20201;-70
2024/01/31 11:21:10;;;;;;;1.30;1.30;;;;;;;10.66;58.31;96922.97;4312182;32;20245;-70
2024/01/31 11:23:39;;;;;;;1.43;1.33;;;;;;;10.36;58.75;96925.38;4315705;33;20185;-70
2024/01/31 11:26:06;;;;;;;1.80;1.70;;;;;;;10.21;59.74;96920.72;4312678;32;20193;-70
2024/01/31 11:28:31;;;;;;;3.30;1.27;;;;;;;10.27;59.76;96919.72;4321824;32;20276;-70
2024/01/31 11:31:00;;;;;;;1.50;1.43;;;;;;;10.26;59.15;96915.47;4323709;32;20198;-70
2024/01/31 11:33:26;;;;;;;2.13;0.70;;;;;;;10.25;59.84;96911.22;4323555;32;20233;-68
2024/01/31 11:35:54;;;;;;;1.57;1.23;;;;;;;10.37;59.38;96903.09;4306523;32;20228;-70
2024/01/31 11:38:21;;;;;;;2.37;1.47;;;;;;;10.48;59.14;96910.09;4293206;33;20189;-67
2024/01/31 11:40:51;;;;;;;1.00;1.00;;;;;;;10.62;58.49;96903.28;4319920;32;20198;-70